Time;durP1;ratioP1;P1;durP2;ratioP2;P2;SDS_P1;SDS_P2;PMS_P1;PMS_P2;Temp;Humidity;BMP_temperature;BMP_pressure;BME280_temperature;BME280_humidity;BME280_pressure;Samples;Min_cycle;Max_cycle;Signal;HPM_P1;HPM_P2
2021/11/11 00:02:09;;;;;;;;;;;;;;;2.58;49.65;102061.45;1666919;86;20223;-69
2021/11/11 00:04:38;;;;;;;;;;;;;;;2.55;49.70;102058.47;1667155;86;20292;-69
2021/11/11 00:07:07;;;;;;;;;;;;;;;2.53;49.76;102057.22;1667183;86;20203;-67
2021/11/11 00:09:36;;;;;;;;;;;;;;;2.50;49.84;102061.48;1667106;86;20200;-69
2021/11/11 00:12:06;;;;;;;;;;;;;;;2.52;49.87;102058.19;1667087;86;20510;-67
2021/11/11 00:14:35;;;;;;;;;;;;;;;2.48;49.92;102052.61;1667094;86;20255;-69
2021/11/11 00:17:04;;;;;;;;;;;;;;;2.46;50.02;102045.08;1667123;86;20267;-68
2021/11/11 00:19:32;;;;;;;;;;;;;;;2.45;50.08;102042.00;1667076;86;20255;-68
2021/11/11 00:22:01;;;;;;;;;;;;;;;2.47;50.11;102036.00;1667065;86;20199;-67
2021/11/11 00:24:29;;;;;;;;;;;;;;;2.46;50.19;102033.39;1667168;86;20238;-69
2021/11/11 00:26:58;;;;;;;;;;;;;;;2.48;50.19;102036.86;1666758;85;20200;-69
2021/11/11 00:29:26;;;;;;;;;;;;;;;2.46;50.19;102036.09;1665730;86;20530;-69
2021/11/11 00:31:54;;;;;;;;;;;;;;;2.45;50.26;102031.66;1651829;86;20166;-69
2021/11/11 00:34:22;;;;;;;;;;;;;;;2.42;50.36;102029.16;1649176;87;20207;-67
2021/11/11 00:36:51;;;;;;;;;;;;;;;2.41;50.43;102026.95;1649121;87;20221;-71
2021/11/11 00:39:18;;;;;;;;;;;;;;;2.43;50.43;102028.20;1649192;87;20508;-67
2021/11/11 00:41:47;;;;;;;;;;;;;;;2.40;50.46;102024.34;1650908;86;20561;-68
2021/11/11 00:44:18;;;;;;;;;;;;;;;2.40;50.53;102021.64;1650535;87;20298;-68
2021/11/11 00:46:47;;;;;;;;;;;;;;;2.36;50.58;102018.28;1650539;87;20170;-68
2021/11/11 00:49:15;;;;;;;;;;;;;;;2.33;50.66;102017.14;1650505;87;20270;-68
2021/11/11 00:51:43;;;;;;;;;;;;;;;2.30;50.80;102016.00;1651712;86;20449;-69
2021/11/11 00:54:12;;;;;;;;;;;;;;;2.29;50.95;102012.05;1650580;86;20193;-69
2021/11/11 00:56:40;;;;;;;;;;;;;;;2.27;50.96;102012.15;1650571;87;20225;-68
2021/11/11 00:59:11;;;;;;;;;;;;;;;2.29;51.03;102009.34;1650520;87;20173;-69
2021/11/11 01:01:39;;;;;;;;;;;;;;;2.26;51.03;102009.06;1650505;87;20174;-69
2021/11/11 01:04:08;;;;;;;;;;;;;;;2.25;51.15;102003.77;1650597;86;20206;-69
2021/11/11 01:06:37;;;;;;;;;;;;;;;2.27;51.17;101996.41;1650502;87;20233;-70
2021/11/11 01:09:05;;;;;;;;;;;;;;;2.26;51.21;101997.38;1650527;87;20183;-69
2021/11/11 01:11:33;;;;;;;;;;;;;;;2.29;51.22;101998.03;1650627;86;20515;-69
2021/11/11 01:14:04;;;;;;;;;;;;;;;2.29;51.28;101997.17;1650285;87;20304;-69
2021/11/11 01:16:33;;;;;;;;;;;;;;;2.25;51.35;101986.19;1650388;87;20186;-67
2021/11/11 01:19:02;;;;;;;;;;;;;;;2.19;51.46;101991.04;1649863;86;20170;-74
2021/11/11 01:21:31;;;;;;;;;;;;;;;2.17;51.55;101992.98;1649054;87;20184;-68
2021/11/11 01:23:59;;;;;;;;;;;;;;;2.16;51.64;101983.63;1649034;87;20534;-68
2021/11/11 01:26:27;;;;;;;;;;;;;;;2.18;51.70;101987.09;1649026;87;20210;-68
2021/11/11 01:28:55;;;;;;;;;;;;;;;2.18;51.74;101977.62;1673354;85;20191;-69
2021/11/11 01:31:23;;;;;;;;;;;;;;;2.19;51.73;101980.70;1676050;86;20187;-70
2021/11/11 01:33:52;;;;;;;;;;;;;;;2.20;51.76;101983.80;1675989;86;20255;-67
2021/11/11 01:36:20;;;;;;;;;;;;;;;2.20;51.79;101977.03;1676122;86;20255;-69
2021/11/11 01:38:50;;;;;;;;;;;;;;;2.17;51.84;101972.70;1596253;90;20199;-69
2021/11/11 01:41:20;;;;;;;;;;;;;;;2.12;52.03;101976.69;1596429;90;20223;-67
2021/11/11 01:43:49;;;;;;;;;;;;;;;2.11;52.13;101975.83;1596160;90;20194;-68
2021/11/11 01:46:18;;;;;;;;;;;;;;;2.10;52.16;101961.92;1596123;90;20250;-68
2021/11/11 01:48:48;;;;;;;;;;;;;;;2.11;52.18;101966.84;1596280;90;20239;-68
2021/11/11 01:51:18;;;;;;;;;;;;;;;2.12;52.29;101968.09;1598092;90;20542;-68
2021/11/11 01:53:49;;;;;;;;;;;;;;;2.12;52.30;101953.22;1598096;90;20581;-71
2021/11/11 01:56:19;;;;;;;;;;;;;;;2.10;52.35;101955.66;1578170;90;20542;-68
2021/11/11 01:58:48;;;;;;;;;;;;;;;2.10;52.44;101957.00;1598794;88;20736;-69
2021/11/11 02:01:16;;;;;;;;;;;;;;;2.08;52.52;101942.23;1597297;88;20223;-69
2021/11/11 02:03:45;;;;;;;;;;;;;;;2.09;52.56;101947.16;1647167;86;20231;-69
2021/11/11 02:06:15;;;;;;;;;;;;;;;2.08;52.66;101939.53;1676226;86;20494;-69
2021/11/11 02:08:47;;;;;;;;;;;;;;;2.08;52.70;101931.91;1676187;84;20183;-69
2021/11/11 02:11:17;;;;;;;;;;;;;;;2.09;52.78;101926.88;1674287;85;20191;-73
2021/11/11 02:13:45;;;;;;;;;;;;;;;2.08;52.80;101925.16;1676262;86;20255;-69
2021/11/11 02:16:15;;;;;;;;;;;;;;;2.07;52.88;101929.69;1677430;84;20164;-69
2021/11/11 02:18:43;;;;;;;;;;;;;;;2.05;52.94;101915.90;1677407;85;20223;-71
2021/11/11 02:21:12;;;;;;;;;;;;;;;2.02;53.01;101921.03;1676769;85;20513;-69
2021/11/11 02:23:58;;;;;;;;;;;;;;;2.02;53.06;101921.52;1676015;85;20183;-67
2021/11/11 02:26:28;;;;;;;;;;;;;;;1.98;53.16;101925.41;1672289;85;20227;-67
2021/11/11 02:28:59;;;;;;;;;;;;;;;1.94;53.29;101912.55;1669132;85;20542;-70
2021/11/11 02:31:27;;;;;;;;;;;;;;;1.91;53.47;101919.03;1667940;86;20206;-68
2021/11/11 02:33:58;;;;;;;;;;;;;;;1.89;53.47;101913.35;1666872;86;20592;-68
2021/11/11 02:36:35;;;;;;;;;;;;;;;1.86;53.62;101910.38;1653911;85;20256;-69
2021/11/11 02:39:03;;;;;;;;;;;;;;;1.85;53.68;101913.18;1664302;86;20526;-68
2021/11/11 02:41:33;;;;;;;;;;;;;;;1.82;53.83;101912.04;1664274;86;20239;-69
2021/11/11 02:44:03;;;;;;;;;;;;;;;1.81;53.84;101913.01;1664256;86;20276;-69
2021/11/11 02:46:31;;;;;;;;;;;;;;;1.80;53.95;101910.80;1665297;86;20202;-70
2021/11/11 02:49:00;;;;;;;;;;;;;;;1.82;53.94;101909.33;1642287;87;20176;-68
2021/11/11 02:51:28;;;;;;;;;;;;;;;1.81;53.97;101904.90;1642492;87;20511;-69
2021/11/11 02:53:57;;;;;;;;;;;;;;;1.78;54.10;101904.63;1658539;86;20575;-68
2021/11/11 02:56:26;;;;;;;;;;;;;;;1.75;54.17;101901.27;1665710;86;20205;-69
2021/11/11 02:58:54;;;;;;;;;;;;;;;1.75;54.21;101898.08;1668454;86;20474;-70
2021/11/11 03:01:22;;;;;;;;;;;;;;;1.74;54.27;101893.64;1669437;86;20531;-69
2021/11/11 03:03:51;;;;;;;;;;;;;;;1.73;54.35;101885.16;1669239;85;20302;-69
2021/11/11 03:06:20;;;;;;;;;;;;;;;1.71;54.37;101884.87;1667720;86;20210;-69
2021/11/11 03:08:49;;;;;;;;;;;;;;;1.70;54.48;101884.50;1663843;85;20273;-71
2021/11/11 03:11:22;;;;;;;;;;;;;;;1.71;54.49;101886.23;1666702;85;20167;-70
2021/11/11 03:14:00;;;;;;;;;;;;;;;1.71;54.50;101883.53;1676969;84;20162;-70
2021/11/11 03:16:30;;;;;;;;;;;;;;;1.73;54.55;101878.89;1669842;86;20456;-68
2021/11/11 03:18:58;;;;;;;;;;;;;;;1.74;54.53;101865.76;1669449;86;20242;-67
2021/11/11 03:21:27;;;;;;;;;;;;;;;1.75;54.60;101863.44;1669407;86;20191;-69
2021/11/11 03:23:55;;;;;;;;;;;;;;;1.72;54.56;101857.75;1669321;85;20158;-71
2021/11/11 03:26:25;;;;;;;;;;;;;;;1.72;54.69;101859.59;1669491;86;20206;-69
2021/11/11 03:28:54;;;;;;;;;;;;;;;1.69;54.74;101848.51;1669290;85;20190;-67
2021/11/11 03:31:24;;;;;;;;;;;;;;;1.66;54.75;101853.26;1669486;85;20150;-68
2021/11/11 03:33:56;;;;;;;;;;;;;;;1.67;54.84;101845.53;1666487;85;20524;-70
2021/11/11 03:36:24;;;;;;;;;;;;;;;1.66;54.89;101841.97;1665414;86;20541;-69
2021/11/11 03:38:52;;;;;;;;;;;;;;;1.65;54.96;101833.97;1665237;86;20210;-69
2021/11/11 03:41:21;;;;;;;;;;;;;;;1.63;54.99;101834.55;1665501;86;20465;-69
2021/11/11 03:43:49;;;;;;;;;;;;;;;1.62;55.04;101824.23;1665451;86;20482;-70
2021/11/11 03:46:18;;;;;;;;;;;;;;;1.61;55.10;101821.16;1665277;86;20206;-68
2021/11/11 03:48:48;;;;;;;;;;;;;;;1.62;55.12;101815.27;1666848;86;20350;-70
2021/11/11 03:51:16;;;;;;;;;;;;;;;1.56;55.20;101812.02;1669349;86;20514;-68
2021/11/11 03:53:46;;;;;;;;;;;;;;;1.56;55.27;101811.15;1669104;86;20538;-68
2021/11/11 03:56:15;;;;;;;;;;;;;;;1.55;55.40;101809.42;1669424;86;20190;-68
2021/11/11 03:58:45;;;;;;;;;;;;;;;1.52;55.40;101798.83;1669366;86;20281;-68
2021/11/11 04:01:14;;;;;;;;;;;;;;;1.53;55.45;101801.91;1668961;86;20166;-68
2021/11/11 04:03:43;;;;;;;;;;;;;;;1.47;55.59;101791.52;1667267;86;20212;-67
2021/11/11 04:06:11;;;;;;;;;;;;;;;1.43;55.74;101785.95;1664229;86;20239;-69
2021/11/11 04:08:40;;;;;;;;;;;;;;;1.40;55.78;101782.97;1664266;86;20183;-69
2021/11/11 04:11:09;;;;;;;;;;;;;;;1.41;55.89;101782.00;1664637;86;20231;-68
2021/11/11 04:13:39;;;;;;;;;;;;;;;1.39;55.88;101779.89;1664191;86;20267;-69
2021/11/11 04:16:09;;;;;;;;;;;;;;;1.37;55.94;101778.27;1664079;86;20188;-67
2021/11/11 04:18:38;;;;;;;;;;;;;;;1.36;56.01;101782.80;1664329;86;20227;-68
2021/11/11 04:21:06;;;;;;;;;;;;;;;1.38;56.06;101777.30;1665538;86;20480;-67
2021/11/11 04:23:36;;;;;;;;;;;;;;;1.33;56.07;101778.96;1669342;86;20224;-67
2021/11/11 04:28:48;;;;;;;;;;;;;;;1.26;56.32;101769.03;1669163;86;20199;-69
2021/11/11 04:34:01;;;;;;;;;;;;;;;1.31;56.36;101766.05;1652805;87;20188;-68
2021/11/11 04:47:51;;;;;;;;;;;;;;;1.29;56.41;101754.46;1677374;86;20563;-68
2021/11/11 04:50:45;;;;;;;;;;;;;;;1.25;56.52;101742.14;1676981;86;20555;-67
2021/11/11 05:04:08;;;;;;;;;;;;;;;1.25;56.65;101739.44;1668961;86;20347;-68
2021/11/11 05:06:37;;;;;;;;;;;;;;;1.25;56.61;101739.44;1677120;86;20199;-70
2021/11/11 05:09:05;;;;;;;;;;;;;;;1.26;56.63;101747.92;1677960;85;20243;-67
2021/11/11 05:11:35;;;;;;;;;;;;;;;1.23;56.64;101757.58;1678821;85;20255;-66
2021/11/11 05:14:05;;;;;;;;;;;;;;;1.23;56.70;101765.67;1678665;85;20282;-68
2021/11/11 05:16:33;;;;;;;;;;;;;;;1.22;56.72;101758.55;1678716;85;20222;-68
2021/11/11 05:19:02;;;;;;;;;;;;;;;1.23;56.74;101762.98;1678444;85;20579;-68
2021/11/11 05:21:31;;;;;;;;;;;;;;;1.26;56.67;101758.72;1596998;89;20203;-68
2021/11/11 05:23:59;;;;;;;;;;;;;;;1.29;56.62;101762.56;1597095;90;20239;-68
2021/11/11 05:26:29;;;;;;;;;;;;;;;1.32;56.55;101764.22;1597097;90;20562;-68
2021/11/11 05:28:59;;;;;;;;;;;;;;;1.34;56.50;101760.44;1592927;90;20768;-69
2021/11/11 05:31:28;;;;;;;;;;;;;;;1.35;56.45;101759.47;1565490;92;20210;-68
2021/11/11 05:33:57;;;;;;;;;;;;;;;1.36;56.31;101753.59;1565575;92;20210;-69
2021/11/11 05:36:25;;;;;;;;;;;;;;;1.36;56.35;101750.88;1565500;92;20187;-69
2021/11/11 05:38:54;;;;;;;;;;;;;;;1.36;56.30;101746.84;1579670;87;20148;-69
2021/11/11 05:41:22;;;;;;;;;;;;;;;1.37;56.29;101749.43;1662967;86;20170;-68
2021/11/11 05:43:52;;;;;;;;;;;;;;;1.40;56.31;101742.95;1669414;86;20146;-69
2021/11/11 05:46:21;;;;;;;;;;;;;;;1.42;56.19;101743.22;1668518;85;20198;-68
2021/11/11 05:48:51;;;;;;;;;;;;;;;1.44;56.11;101753.92;1669286;85;20547;-69
2021/11/11 05:51:19;;;;;;;;;;;;;;;1.47;56.05;101744.25;1666553;86;20227;-69
2021/11/11 05:53:48;;;;;;;;;;;;;;;1.49;55.96;101731.02;1664108;86;20231;-72
2021/11/11 05:56:16;;;;;;;;;;;;;;;1.50;55.88;101732.75;1667057;86;20218;-68
2021/11/11 05:58:45;;;;;;;;;;;;;;;1.49;55.83;101726.97;1669160;86;20226;-68
2021/11/11 06:01:13;;;;;;;;;;;;;;;1.50;55.79;101728.70;1668868;86;20170;-68
2021/11/11 06:03:46;;;;;;;;;;;;;;;1.50;55.83;101730.05;1669506;86;20302;-69
2021/11/11 06:06:15;;;;;;;;;;;;;;;1.53;55.83;101728.48;1642248;87;20208;-71
2021/11/11 06:08:45;;;;;;;;;;;;;;;1.55;55.84;101731.09;1642173;87;20491;-69
2021/11/11 06:11:13;;;;;;;;;;;;;;;1.57;55.81;101728.66;1665414;86;20240;-68
2021/11/11 06:13:42;;;;;;;;;;;;;;;1.59;55.81;101736.16;1668696;86;20237;-69
2021/11/11 06:16:10;;;;;;;;;;;;;;;1.59;55.80;101734.81;1667996;86;20543;-69
2021/11/11 06:18:39;;;;;;;;;;;;;;;1.60;55.87;101731.63;1667936;86;20515;-69
2021/11/11 06:21:10;;;;;;;;;;;;;;;1.62;55.89;101730.16;1665632;86;20232;-69
2021/11/11 06:23:38;;;;;;;;;;;;;;;1.63;55.85;101733.25;1664252;86;20291;-69
2021/11/11 06:26:06;;;;;;;;;;;;;;;1.65;55.69;101728.11;1664249;86;20208;-69
2021/11/11 06:28:39;;;;;;;;;;;;;;;1.67;55.67;101722.60;1664284;86;20552;-67
2021/11/11 06:31:07;;;;;;;;;;;;;;;1.68;55.68;101715.74;1664245;86;20526;-69
2021/11/11 06:33:38;;;;;;;;;;;;;;;1.70;55.58;101706.17;1664233;86;20534;-69
2021/11/11 06:36:08;;;;;;;;;;;;;;;1.73;55.47;101696.02;1664171;86;20540;-68
2021/11/11 06:38:36;;;;;;;;;;;;;;;1.76;55.32;101692.23;1666382;86;20477;-71
2021/11/11 06:41:04;;;;;;;;;;;;;;;1.77;55.41;101693.96;1666707;86;20226;-70
2021/11/11 06:43:34;;;;;;;;;;;;;;;1.78;55.31;101686.23;1665554;86;20215;-70
2021/11/11 06:46:03;;;;;;;;;;;;;;;1.78;55.33;101689.80;1666875;86;20206;-69
2021/11/11 06:48:32;;;;;;;;;;;;;;;1.80;55.26;101692.39;1669415;86;20154;-69
2021/11/11 06:51:02;;;;;;;;;;;;;;;1.82;55.26;101693.14;1667025;86;20155;-69
2021/11/11 06:53:30;;;;;;;;;;;;;;;1.85;55.17;101695.63;1669398;86;20162;-69
2021/11/11 06:55:59;;;;;;;;;;;;;;;1.88;54.81;101698.11;1668220;85;20231;-69
2021/11/11 06:58:27;;;;;;;;;;;;;;;1.92;54.74;101686.10;1666548;86;20221;-69
2021/11/11 07:00:58;;;;;;;;;;;;;;;1.99;54.62;101681.16;1669277;86;20202;-71
2021/11/11 07:03:27;;;;;;;;;;;;;;;2.06;54.40;101675.19;1669630;86;20166;-69
2021/11/11 07:05:56;;;;;;;;;;;;;;;2.12;54.10;101677.93;1669417;86;20198;-71
2021/11/11 07:08:25;;;;;;;;;;;;;;;2.18;53.95;101674.78;1664413;85;20223;-69
2021/11/11 07:10:53;;;;;;;;;;;;;;;2.25;53.60;101672.48;1664294;86;20188;-70
2021/11/11 07:13:22;;;;;;;;;;;;;;;2.30;53.48;101677.93;1664216;86;20188;-70
2021/11/11 07:15:50;;;;;;;;;;;;;;;2.37;53.27;101671.58;1664171;86;20200;-69
2021/11/11 07:18:19;;;;;;;;;;;;;;;2.43;52.54;101679.23;1667755;86;20245;-71
2021/11/11 07:20:49;;;;;;;;;;;;;;;2.51;52.42;101677.69;1669803;86;20227;-70
2021/11/11 07:23:20;;;;;;;;;;;;;;;2.62;52.22;101692.28;1669302;86;20217;-69
2021/11/11 07:25:52;;;;;;;;;;;;;;;2.83;51.81;101686.12;1669258;86;20592;-69
2021/11/11 07:28:20;;;;;;;;;;;;;;;3.21;50.91;101685.02;1667290;86;20545;-69
2021/11/11 07:30:49;;;;;;;;;;;;;;;3.72;49.95;101673.81;1675159;86;20222;-70
2021/11/11 07:33:19;;;;;;;;;;;;;;;4.17;48.51;101678.75;1677011;86;20211;-69
2021/11/11 07:35:47;;;;;;;;;;;;;;;4.57;47.28;101677.72;1677755;85;20216;-74
2021/11/11 07:38:16;;;;;;;;;;;;;;;4.94;46.92;101675.98;1680054;84;20235;-69
2021/11/11 07:40:44;;;;;;;;;;;;;;;5.35;45.94;101661.09;1680230;84;20171;-71
2021/11/11 07:43:15;;;;;;;;;;;;;;;5.71;44.69;101667.02;1680149;84;20167;-69
2021/11/11 07:45:46;;;;;;;;;;;;;;;5.99;43.83;101659.55;1677144;85;20191;-69
2021/11/11 07:48:15;;;;;;;;;;;;;;;6.33;42.78;101657.88;1677066;86;20238;-71
2021/11/11 07:50:43;;;;;;;;;;;;;;;6.65;42.44;101645.42;1676948;86;20555;-70
2021/11/11 07:53:12;;;;;;;;;;;;;;;6.93;41.89;101647.80;1677312;86;20195;-70
2021/11/11 07:55:41;;;;;;;;;;;;;;;7.21;40.58;101640.63;1679463;85;20520;-71
2021/11/11 07:58:12;;;;;;;;;;;;;;;7.29;39.96;101645.72;1649102;87;20561;-69
2021/11/11 08:00:40;;;;;;;;;;;;;;;7.34;40.03;101641.69;1649169;87;20158;-70
2021/11/11 08:03:10;;;;;;;;;;;;;;;7.31;39.83;101641.48;1649297;86;20189;-69
2021/11/11 08:05:40;;;;;;;;;;;;;;;7.30;39.83;101636.53;1647706;87;20466;-70
2021/11/11 08:08:09;;;;;;;;;;;;;;;7.26;40.08;101640.55;1648411;87;20281;-71
2021/11/11 08:10:38;;;;;;;;;;;;;;;7.18;40.34;101637.70;1649415;86;20189;-71
2021/11/11 08:13:06;;;;;;;;;;;;;;;7.12;40.43;101635.52;1649134;86;20182;-71
2021/11/11 08:15:36;;;;;;;;;;;;;;;7.08;40.79;101624.55;1654489;85;20234;-70
2021/11/11 08:18:07;;;;;;;;;;;;;;;6.99;40.70;101636.32;1678629;85;20204;-69
2021/11/11 08:20:36;;;;;;;;;;;;;;;6.81;40.89;101638.91;1678778;85;20187;-68
2021/11/11 08:23:04;;;;;;;;;;;;;;;6.68;41.36;101635.10;1678790;85;20243;-69
2021/11/11 08:25:33;;;;;;;;;;;;;;;6.62;41.73;101639.75;1679441;85;20155;-70
2021/11/11 08:28:01;;;;;;;;;;;;;;;6.58;41.59;101636.95;1679980;84;20168;-71
2021/11/11 08:30:30;;;;;;;;;;;;;;;6.51;41.81;101630.86;1680495;84;20227;-70
2021/11/11 08:32:59;;;;;;;;;;;;;;;6.44;42.11;101630.53;1680721;84;20251;-69
2021/11/11 08:35:29;;;;;;;;;;;;;;;6.39;42.22;101626.01;1650395;87;20585;-70
2021/11/11 08:37:57;;;;;;;;;;;;;;;6.33;42.62;101626.56;1649167;87;20243;-69
2021/11/11 08:40:26;;;;;;;;;;;;;;;6.31;42.40;101616.32;1649180;87;20518;-70
2021/11/11 08:42:56;;;;;;;;;;;;;;;6.25;42.34;101618.24;1649069;87;20283;-68
2021/11/11 08:45:27;;;;;;;;;;;;;;;6.18;42.19;101608.92;1649802;87;20268;-69
2021/11/11 08:47:56;;;;;;;;;;;;;;;6.11;42.65;101607.25;1652018;87;20273;-68
2021/11/11 08:50:28;;;;;;;;;;;;;;;6.12;42.60;101598.09;1651974;87;20233;-68
2021/11/11 08:52:55;;;;;;;;;;;;;;;6.12;42.44;101601.31;1651957;85;20166;-69
2021/11/11 08:55:25;;;;;;;;;;;;;;;6.13;42.38;101598.95;1652030;85;20162;-70
2021/11/11 08:57:54;;;;;;;;;;;;;;;6.16;42.26;101602.75;1651485;87;20179;-68
2021/11/11 09:00:24;;;;;;;;;;;;;;;6.19;42.20;101597.03;1614158;87;20160;-69
2021/11/11 09:02:54;;;;;;;;;;;;;;;6.22;42.25;101593.53;1619094;88;20968;-65
2021/11/11 09:05:24;;;;;;;;;;;;;;;6.28;43.06;101582.08;1621864;87;20195;-65
2021/11/11 09:07:53;;;;;;;;;;;;;;;6.32;42.49;101572.63;1622435;87;20219;-64
2021/11/11 09:10:21;;;;;;;;;;;;;;;6.35;42.14;101564.68;1624078;87;20576;-64
2021/11/11 09:12:51;;;;;;;;;;;;;;;6.36;42.20;101561.81;1623911;87;20224;-67
2021/11/11 09:15:23;;;;;;;;;;;;;;;6.39;42.04;101557.95;1615375;87;20283;-64
2021/11/11 09:17:52;;;;;;;;;;;;;;;6.42;41.76;101544.05;1613799;87;20275;-64
2021/11/11 09:20:21;;;;;;;;;;;;;;;6.44;41.70;101536.59;1611504;87;20524;-64
2021/11/11 09:22:50;;;;;;;;;;;;;;;6.48;41.98;101528.50;1622034;88;20251;-65
2021/11/11 09:25:19;;;;;;;;;;;;;;;6.54;42.05;101525.23;1657080;85;20698;-64
2021/11/11 09:27:48;;;;;;;;;;;;;;;6.60;41.46;101522.44;1677550;85;20501;-67
2021/11/11 09:30:20;;;;;;;;;;;;;;;6.62;41.14;101521.30;1677323;86;20239;-64
2021/11/11 09:32:50;;;;;;;;;;;;;;;6.63;40.57;101504.45;1676760;85;20311;-66
2021/11/11 09:35:20;;;;;;;;;;;;;;;6.63;40.20;101501.22;1677565;84;20238;-64
2021/11/11 09:37:51;;;;;;;;;;;;;;;6.62;40.10;101489.11;1678366;85;20219;-66
2021/11/11 09:40:21;;;;;;;;;;;;;;;6.61;40.31;101490.13;1678614;85;20227;-65
2021/11/11 09:42:50;;;;;;;;;;;;;;;6.63;40.17;101493.55;1676844;86;20582;-65
2021/11/11 09:45:21;;;;;;;;;;;;;;;6.70;40.39;101477.49;1678701;85;20175;-65
2021/11/11 09:47:52;;;;;;;;;;;;;;;6.74;39.59;101475.69;1678459;85;20235;-65
2021/11/11 09:50:22;;;;;;;;;;;;;;;6.77;39.62;101476.76;1678709;85;20215;-65
2021/11/11 09:52:52;;;;;;;;;;;;;;;6.79;39.58;101456.18;1678917;85;20219;-67
2021/11/11 10:00:57;;;;;;;;;;;;;;;6.91;39.79;101431.84;1677128;86;20325;-66
2021/11/11 10:03:27;;;;;;;;;;;;;;;6.92;39.86;101421.30;1676841;86;20256;-65
2021/11/11 10:05:55;;;;;;;;;;;;;;;6.97;39.72;101421.70;1676917;86;20207;-66
2021/11/11 10:08:36;;;;;;;;;;;;;;;7.02;39.66;101430.29;1649442;86;20202;-66
2021/11/11 10:11:16;;;;;;;;;;;;;;;7.06;39.11;101416.72;1671363;86;20211;-64
2021/11/11 10:13:44;;;;;;;;;;;;;;;7.10;39.33;101408.59;1675823;86;20250;-65
2021/11/11 10:16:14;;;;;;;;;;;;;;;7.12;38.78;101397.04;1648458;87;20527;-66
2021/11/11 10:18:57;;;;;;;;;;;;;;;7.19;38.70;101394.09;1652344;85;20165;-65
2021/11/11 10:21:52;;;;;;;;;;;;;;;7.24;38.41;101401.31;1652389;87;20167;-65
2021/11/11 10:24:33;;;;;;;;;;;;;;;7.28;38.02;101386.88;1652557;87;20190;-65
2021/11/11 10:27:06;;;;;;;;;;;;;;;7.31;37.50;101387.43;1671853;85;20160;-64
2021/11/11 10:29:38;;;;;;;;;;;;;;;7.35;37.52;101378.94;1680049;85;20172;-66
2021/11/11 10:32:11;;;;;;;;;;;;;;;7.36;37.57;101360.21;1679859;84;20172;-65
2021/11/11 10:34:49;;;;;;;;;;;;;;;7.36;37.70;101346.08;1679762;84;20215;-66
2021/11/11 10:37:19;;;;;;;;;;;;;;;7.38;37.51;101350.87;1679413;85;20476;-65
2021/11/11 10:39:54;;;;;;;;;;;;;;;7.41;37.65;101327.39;1680260;84;20213;-66
2021/11/11 10:42:25;;;;;;;;;;;;;;;7.44;37.93;101322.98;1680059;85;20543;-65
2021/11/11 10:44:56;;;;;;;;;;;;;;;7.50;37.90;101313.33;1689303;85;20154;-66
2021/11/11 10:47:27;;;;;;;;;;;;;;;7.57;37.71;101312.55;1689864;84;20196;-68
2021/11/11 10:49:56;;;;;;;;;;;;;;;7.68;37.75;101324.23;1679888;84;20282;-66
2021/11/11 10:52:31;;;;;;;;;;;;;;;7.75;37.86;101320.72;1679892;84;20211;-67
2021/11/11 10:55:17;;;;;;;;;;;;;;;7.82;37.88;101316.38;1678220;85;20231;-65
2021/11/11 10:58:07;;;;;;;;;;;;;;;7.84;37.84;101326.63;1676843;86;20238;-66
2021/11/11 11:00:54;;;;;;;;;;;;;;;7.82;37.99;101333.26;1676977;86;20242;-66
2021/11/11 11:03:27;;;;;;;;;;;;;;;7.80;38.22;101327.96;1676817;86;20223;-65
2021/11/11 11:06:03;;;;;;;;;;;;;;;7.76;38.27;101330.62;1678874;85;20576;-65
2021/11/11 11:08:37;;;;;;;;;;;;;;;7.73;38.61;101336.39;1679871;84;20155;-67
2021/11/11 11:11:20;;;;;;;;;;;;;;;7.71;38.78;101337.05;1679133;84;20276;-67
2021/11/11 11:13:53;;;;;;;;;;;;;;;7.74;38.89;101331.80;1678033;85;20167;-66
2021/11/11 11:16:28;;;;;;;;;;;;;;;7.79;39.14;101330.31;1680026;85;20172;-66
2021/11/11 11:18:58;;;;;;;;;;;;;;;7.85;39.01;101335.67;1679780;85;20200;-64
2021/11/11 11:21:47;;;;;;;;;;;;;;;7.90;39.24;101329.23;1655037;85;20172;-65
2021/11/11 11:24:20;;;;;;;;;;;;;;;7.94;39.20;101319.22;1679785;85;20184;-64
2021/11/11 11:26:50;;;;;;;;;;;;;;;7.98;39.25;101317.02;1679724;84;20176;-65
2021/11/11 11:29:23;;;;;;;;;;;;;;;8.02;39.60;101313.47;1679829;84;20164;-65
2021/11/11 11:32:04;;;;;;;;;;;;;;;8.06;39.63;101310.77;1680420;85;20171;-67
2021/11/11 11:34:28;;;;;;;;;;;;;;;8.09;39.76;101303.63;1678847;84;20191;-65
2021/11/11 11:37:14;;;;;;;;;;;;;;;8.14;39.78;101295.81;1677862;84;20219;-66
2021/11/11 11:39:45;;;;;;;;;;;;;;;8.16;39.71;101284.23;1680633;85;20468;-66
2021/11/11 11:42:20;;;;;;;;;;;;;;;8.16;39.80;101286.95;1680729;85;20154;-67
2021/11/11 11:44:50;;;;;;;;;;;;;;;8.16;40.08;101278.77;1690696;85;20181;-66
2021/11/11 11:47:31;;;;;;;;;;;;;;;8.19;40.12;101268.89;1689237;85;20195;-65
2021/11/11 11:50:00;;;;;;;;;;;;;;;8.20;40.25;101265.14;1680878;84;20197;-66
2021/11/11 11:52:31;;;;;;;;;;;;;;;8.21;40.27;101275.05;1680530;84;20278;-66
2021/11/11 11:55:07;;;;;;;;;;;;;;;8.19;40.41;101272.48;1680706;85;20246;-67
2021/11/11 12:00:49;;;;;;;;;;;;;;;8.21;40.46;101260.89;1680843;84;20276;-65
2021/11/11 12:05:43;;;;;;;;;;;;;;;8.21;39.74;101246.38;1680582;85;20218;-64
2021/11/11 12:11:30;;;;;;;;;;;;;;;8.18;39.71;101243.98;1680483;84;20167;-65
2021/11/11 12:13:57;;;;;;;;;;;;;;;8.15;39.86;101246.52;1682065;84;20494;-66
2021/11/11 12:40:00;;;;;;;;;;;;;;;8.26;40.40;101220.30;1734052;83;20213;-66
2021/11/11 12:42:40;;;;;;;;;;;;;;;8.29;40.33;101224.59;1734169;83;20510;-66
2021/11/11 12:45:22;;;;;;;;;;;;;;;8.29;40.50;101227.31;1733882;83;20210;-66
2021/11/11 12:47:54;;;;;;;;;;;;;;;8.29;40.53;101217.76;1733836;83;20164;-67
2021/11/11 12:50:50;;;;;;;;;;;;;;;8.29;40.74;101223.22;1733851;81;20156;-66
2021/11/11 12:53:23;;;;;;;;;;;;;;;8.28;40.84;101223.73;1733989;81;20477;-66
2021/11/11 12:56:06;;;;;;;;;;;;;;;8.30;40.89;101215.88;1734019;83;20159;-65
2021/11/11 12:58:36;;;;;;;;;;;;;;;8.30;40.90;101228.17;1734013;81;20151;-65
2021/11/11 13:01:17;;;;;;;;;;;;;;;8.29;41.02;101230.05;1733830;81;20171;-65
2021/11/11 13:03:59;;;;;;;;;;;;;;;8.28;41.14;101233.80;1733885;81;20273;-66
2021/11/11 13:06:39;;;;;;;;;;;;;;;8.28;41.35;101240.11;1734199;83;20289;-66
2021/11/11 13:09:21;;;;;;;;;;;;;;;8.27;41.32;101226.63;1733944;83;20163;-66
2021/11/11 13:11:54;;;;;;;;;;;;;;;8.27;41.46;101226.63;1733468;82;20170;-67
2021/11/11 13:14:30;;;;;;;;;;;;;;;8.25;41.71;101226.78;1733757;82;20195;-66
2021/11/11 13:17:03;;;;;;;;;;;;;;;8.27;41.79;101217.92;1733434;83;20160;-66
2021/11/11 13:19:36;;;;;;;;;;;;;;;8.29;41.78;101216.39;1733296;82;20278;-65
2021/11/11 14:00:14;;;;;;;;;;;;;;;7.92;43.18;101178.48;1674078;86;20481;-66
2021/11/11 14:03:27;;;;;;;;;;;;;;;7.90;43.25;101176.43;1673611;86;20172;-67
2021/11/11 15:04:35;;;;;;;;;;;;;;;7.67;44.11;101163.81;1579138;86;20235;-65
2021/11/11 15:17:05;;;;;;;;;;;;;;;7.13;46.23;101112.60;1581863;91;20222;-67
2021/11/11 16:02:00;;;;;;;;;;;;;;;6.83;47.78;101135.67;1662197;86;20238;-65
2021/11/11 16:21:11;;;;;;;;;;;;;;;6.17;49.30;101129.63;1662198;86;20458;-67
2021/11/11 16:23:54;;;;;;;;;;;;;;;6.14;49.52;101128.08;1661469;86;20219;-65
2021/11/11 16:26:18;;;;;;;;;;;;;;;6.14;49.43;101129.94;1661645;86;20503;-64
2021/11/11 16:28:49;;;;;;;;;;;;;;;6.16;50.31;101121.97;1661963;86;20496;-67
2021/11/11 16:31:21;;;;;;;;;;;;;;;6.17;50.02;101110.59;1661922;86;20191;-67
2021/11/11 16:33:50;;;;;;;;;;;;;;;6.12;49.85;101118.34;1662086;86;20616;-66
2021/11/11 16:36:19;;;;;;;;;;;;;;;6.06;49.85;101123.89;1662008;86;20194;-66
2021/11/11 16:38:48;;;;;;;;;;;;;;;6.00;49.87;101114.97;1662009;86;20221;-66
2021/11/11 16:41:17;;;;;;;;;;;;;;;5.97;49.87;101120.72;1661607;86;20219;-66
2021/11/11 16:43:48;;;;;;;;;;;;;;;5.94;50.25;101119.66;1667629;86;20207;-65
2021/11/11 16:46:17;;;;;;;;;;;;;;;5.91;50.12;101124.03;1683225;85;20149;-66
2021/11/11 16:48:46;;;;;;;;;;;;;;;5.91;52.05;101120.81;1693759;85;20205;-65
2021/11/11 16:51:14;;;;;;;;;;;;;;;5.91;50.90;101114.02;1693582;85;20170;-64
2021/11/11 16:53:44;;;;;;;;;;;;;;;5.92;50.53;101119.80;1693638;85;20226;-65
2021/11/11 16:56:14;;;;;;;;;;;;;;;5.92;50.00;101108.92;1693707;85;20214;-67
2021/11/11 16:58:43;;;;;;;;;;;;;;;5.91;49.94;101114.02;1693580;85;20565;-65